25°C Temp
16°C Dewpoint
% Humidity
Temperature
13 KM/H
8 MPH
7 KTS
220°
South West

Wind Speed
Mostly Scattered
Clouds
Pressure 1007.92 (hPa) - 29.76 (in)
Visibility 6.2 (mi) - 10.0 (km)

Current Conditions
EDDG
Location 6km (3.2mi)
Metar :EDDG 251150Z 22007KT 190V250 9999 SCT031 25/16 Q1008 NOSIG
Sun 25th July 12:50 pm

Airport
  Metar Aviation API Data Provided by https://www.checkwx.com/ PHP scripts by weather34.com ©2021